Time;durP1;ratioP1;P1;durP2;ratioP2;P2;SDS_P1;SDS_P2;PMS_P1;PMS_P2;Temp;Humidity;BMP_temperature;BMP_pressure;BME280_temperature;BME280_humidity;BME280_pressure;Samples;Min_cycle;Max_cycle;Signal;HPM_P1;HPM_P2
2022/04/15 00:01:20;;;;;;;4.60;2.63;;;20.00;59.60;;;;;;5014463;28;20029;-62
2022/04/15 00:03:46;;;;;;;5.55;2.85;;;20.00;59.50;;;;;;5010272;28;20030;-62
2022/04/15 00:06:12;;;;;;;4.70;2.80;;;20.00;59.60;;;;;;5010337;28;20032;-62
2022/04/15 00:08:38;;;;;;;4.78;2.75;;;20.00;59.60;;;;;;5022627;28;20029;-62
2022/04/15 00:11:04;;;;;;;5.75;2.90;;;20.00;59.60;;;;;;5009523;28;20414;-62
2022/04/15 00:13:31;;;;;;;5.78;2.80;;;19.90;59.60;;;;;;5014999;28;20109;-62
2022/04/15 00:15:57;;;;;;;4.90;2.72;;;19.90;59.60;;;;;;5011853;28;20042;-62
2022/04/15 00:18:24;;;;;;;5.03;2.70;;;19.90;59.60;;;;;;5021395;28;20022;-61
2022/04/15 00:20:51;;;;;;;4.95;2.85;;;19.90;59.70;;;;;;5012842;28;20096;-62
2022/04/15 00:23:18;;;;;;;5.30;2.80;;;19.90;59.90;;;;;;5011198;28;20064;-62
2022/04/15 00:25:44;;;;;;;4.75;2.65;;;19.90;59.70;;;;;;5009424;28;20045;-62
2022/04/15 00:28:09;;;;;;;5.53;2.80;;;19.90;59.70;;;;;;5010769;28;20018;-62
2022/04/15 00:30:35;;;;;;;5.47;2.85;;;19.90;59.70;;;;;;5019487;28;20080;-62
2022/04/15 00:33:01;;;;;;;5.32;2.88;;;19.90;59.90;;;;;;5013480;28;20113;-62
2022/04/15 00:35:26;;;;;;;4.85;2.70;;;19.80;59.80;;;;;;5013995;28;20041;-62
2022/04/15 00:37:52;;;;;;;4.70;2.70;;;19.80;59.70;;;;;;5011373;28;20026;-62
2022/04/15 00:40:18;;;;;;;4.80;2.63;;;19.90;59.70;;;;;;5011487;28;20045;-62
2022/04/15 00:42:43;;;;;;;5.35;2.58;;;19.80;59.70;;;;;;5012939;28;20030;-62
2022/04/15 00:45:09;;;;;;;5.82;2.80;;;19.80;59.70;;;;;;5011492;28;20411;-62
2022/04/15 00:47:45;;;;;;;5.30;2.60;;;19.80;59.80;;;;;;5015720;28;20029;-61
2022/04/15 00:50:11;;;;;;;6.60;2.90;;;19.80;59.70;;;;;;5017392;28;20030;-62
2022/04/15 00:52:39;;;;;;;4.88;2.67;;;19.80;59.70;;;;;;5015347;28;20054;-62
2022/04/15 00:55:06;;;;;;;5.45;2.70;;;19.80;59.80;;;;;;5013719;28;20466;-62
2022/04/15 00:57:33;;;;;;;5.78;3.08;;;19.80;59.80;;;;;;5016913;28;20109;-61
2022/04/15 01:00:00;;;;;;;6.07;2.65;;;19.80;59.80;;;;;;5014175;28;20042;-62
2022/04/15 01:02:26;;;;;;;6.43;2.92;;;19.80;59.80;;;;;;5016411;28;20513;-62
2022/04/15 01:04:55;;;;;;;6.25;3.20;;;19.80;59.90;;;;;;5015521;28;20063;-62
2022/04/15 01:07:23;;;;;;;5.85;3.08;;;19.80;59.90;;;;;;5013020;28;20029;-62
2022/04/15 01:09:50;;;;;;;7.68;2.95;;;19.70;59.90;;;;;;5021450;28;20041;-61
2022/04/15 01:12:17;;;;;;;5.65;2.90;;;19.80;59.90;;;;;;5020677;28;20097;-62
2022/04/15 01:14:43;;;;;;;5.80;2.90;;;19.70;59.90;;;;;;5022240;28;20041;-62
2022/04/15 01:17:08;;;;;;;7.50;3.15;;;19.70;59.90;;;;;;5019435;28;20025;-62
2022/04/15 01:19:34;;;;;;;7.47;3.05;;;19.70;60.00;;;;;;5019259;28;20029;-62
2022/04/15 01:22:02;;;;;;;7.25;3.20;;;19.70;59.90;;;;;;5015622;28;20022;-62
2022/04/15 01:24:29;;;;;;;5.38;2.80;;;19.70;59.90;;;;;;5020228;28;20037;-62
2022/04/15 01:26:55;;;;;;;7.45;3.20;;;19.70;59.90;;;;;;5021137;28;20111;-61
2022/04/15 01:29:20;;;;;;;6.38;2.97;;;19.70;59.90;;;;;;5018532;28;20063;-62
2022/04/15 01:31:46;;;;;;;6.38;2.80;;;19.70;59.90;;;;;;5015597;28;20036;-61
2022/04/15 01:34:12;;;;;;;6.57;3.08;;;19.70;59.90;;;;;;5014278;28;20042;-62
2022/04/15 01:36:37;;;;;;;8.27;3.47;;;19.60;59.90;;;;;;5021318;28;20025;-62
2022/04/15 01:39:03;;;;;;;7.03;3.10;;;19.70;60.00;;;;;;5021693;28;20045;-62
2022/04/15 01:41:29;;;;;;;7.43;3.28;;;19.60;60.00;;;;;;5019618;28;20031;-62
2022/04/15 01:43:54;;;;;;;7.30;3.25;;;19.60;60.00;;;;;;5018177;28;20030;-62
2022/04/15 01:46:20;;;;;;;8.40;3.40;;;19.60;60.00;;;;;;5016806;28;20057;-62
2022/04/15 01:48:47;;;;;;;7.13;3.25;;;19.60;60.00;;;;;;5016169;28;20052;-62
2022/04/15 01:51:12;;;;;;;6.80;3.33;;;19.60;60.00;;;;;;5018002;28;20025;-62
2022/04/15 01:53:38;;;;;;;7.80;3.42;;;19.60;60.00;;;;;;5015377;28;20034;-62
2022/04/15 01:56:05;;;;;;;6.80;3.38;;;19.60;60.10;;;;;;5016255;28;20037;-61
2022/04/15 01:58:33;;;;;;;6.47;3.22;;;19.60;60.10;;;;;;5012721;28;20022;-62
2022/04/15 02:00:58;;;;;;;7.55;3.70;;;19.60;60.10;;;;;;5016147;28;20085;-62
2022/04/15 02:03:24;;;;;;;8.45;3.42;;;19.60;60.20;;;;;;5026697;28;20040;-61
2022/04/15 02:05:50;;;;;;;7.30;3.60;;;19.60;60.20;;;;;;5021627;28;20460;-62
2022/04/15 02:08:15;;;;;;;6.13;3.10;;;19.60;60.20;;;;;;5016035;28;20030;-62
2022/04/15 02:10:41;;;;;;;6.95;3.28;;;19.60;60.20;;;;;;5015494;28;20387;-62
2022/04/15 02:13:07;;;;;;;7.55;3.53;;;19.60;60.20;;;;;;5022178;28;20556;-62
2022/04/15 02:15:33;;;;;;;7.97;3.38;;;19.60;60.20;;;;;;5014027;28;20048;-62
2022/04/15 02:17:58;;;;;;;6.60;3.40;;;19.60;60.20;;;;;;5015915;28;20517;-62
2022/04/15 02:20:24;;;;;;;7.18;3.60;;;19.60;60.20;;;;;;5019350;28;20037;-62
2022/04/15 02:22:51;;;;;;;7.18;3.65;;;19.50;60.20;;;;;;5016619;28;20515;-62
2022/04/15 02:25:17;;;;;;;6.57;3.40;;;19.50;60.20;;;;;;5018026;28;20061;-62
2022/04/15 02:27:44;;;;;;;5.78;3.30;;;19.50;60.20;;;;;;5022869;28;20139;-62
2022/04/15 02:30:10;;;;;;;7.10;3.33;;;19.50;60.20;;;;;;5021654;28;20478;-62
2022/04/15 02:32:35;;;;;;;6.38;3.20;;;19.50;60.20;;;;;;5016525;28;20028;-62
2022/04/15 02:35:01;;;;;;;6.78;3.30;;;19.50;60.30;;;;;;5014420;28;20045;-62
2022/04/15 02:37:27;;;;;;;6.93;3.65;;;19.50;60.20;;;;;;5012722;28;20037;-61
2022/04/15 02:39:53;;;;;;;5.97;3.22;;;19.50;60.20;;;;;;5015736;28;20036;-62
2022/04/15 02:42:18;;;;;;;6.63;3.45;;;19.50;60.30;;;;;;5016933;28;20022;-62
2022/04/15 02:44:44;;;;;;;6.57;3.25;;;19.50;60.20;;;;;;5014596;28;20114;-61
2022/04/15 02:47:10;;;;;;;7.15;3.33;;;19.50;60.20;;;;;;5017571;28;20092;-62
2022/04/15 02:49:35;;;;;;;5.97;3.35;;;19.50;60.30;;;;;;5022569;28;20438;-62
2022/04/15 02:52:01;;;;;;;6.43;3.20;;;19.50;60.20;;;;;;5017425;28;20506;-62
2022/04/15 02:54:27;;;;;;;4.32;2.80;;;19.50;60.20;;;;;;5022480;28;20517;-62
2022/04/15 02:56:52;;;;;;;6.28;3.13;;;19.50;60.20;;;;;;5022320;28;20064;-62
2022/04/15 02:59:20;;;;;;;7.50;3.30;;;19.50;60.20;;;;;;5018966;28;20159;-62
2022/04/15 03:01:46;;;;;;;6.30;3.30;;;19.40;60.20;;;;;;5016781;28;20049;-62
2022/04/15 03:04:11;;;;;;;6.85;3.08;;;19.40;60.20;;;;;;5013871;28;20018;-62
2022/04/15 03:06:38;;;;;;;7.40;3.40;;;19.40;60.10;;;;;;5017184;28;20029;-62
2022/04/15 03:09:03;;;;;;;6.32;3.30;;;19.40;60.20;;;;;;5011368;28;20040;-62
2022/04/15 03:11:29;;;;;;;5.18;3.00;;;19.40;60.20;;;;;;5015856;28;20018;-62
2022/04/15 03:13:54;;;;;;;5.70;3.17;;;19.40;60.20;;;;;;5013289;28;20432;-62
2022/04/15 03:16:20;;;;;;;6.13;3.30;;;19.40;60.20;;;;;;5014177;28;20057;-62
2022/04/15 03:18:46;;;;;;;7.72;3.42;;;19.40;60.10;;;;;;5017340;28;20414;-61
2022/04/15 03:21:11;;;;;;;6.32;3.42;;;19.40;60.20;;;;;;5016137;28;20029;-62
2022/04/15 03:23:39;;;;;;;5.70;2.97;;;19.40;60.20;;;;;;5016699;28;20060;-61
2022/04/15 03:26:05;;;;;;;4.88;3.17;;;19.40;60.20;;;;;;5019517;28;20383;-61
2022/04/15 03:28:30;;;;;;;6.22;3.28;;;19.40;60.10;;;;;;5011742;28;20036;-62
2022/04/15 03:30:56;;;;;;;5.53;3.13;;;19.40;60.20;;;;;;5014049;28;20395;-62
2022/04/15 03:33:22;;;;;;;5.50;2.88;;;19.30;60.10;;;;;;5013976;28;20490;-62
2022/04/15 03:35:47;;;;;;;6.03;3.15;;;19.40;60.10;;;;;;5017576;28;20049;-62
2022/04/15 03:38:13;;;;;;;5.50;3.28;;;19.30;60.10;;;;;;5015679;28;20026;-61
2022/04/15 03:40:38;;;;;;;6.53;3.42;;;19.30;60.10;;;;;;5014911;28;20018;-62
2022/04/15 03:43:04;;;;;;;5.60;3.20;;;19.30;60.10;;;;;;5014348;28;20045;-62
2022/04/15 03:45:30;;;;;;;5.35;2.88;;;19.30;60.00;;;;;;5020632;28;20049;-62
2022/04/15 03:47:56;;;;;;;7.03;3.28;;;19.30;60.10;;;;;;5015763;28;20368;-62
2022/04/15 03:50:22;;;;;;;5.03;3.10;;;19.30;60.00;;;;;;5013362;28;20045;-62
2022/04/15 03:52:47;;;;;;;4.65;2.75;;;19.30;60.10;;;;;;5013296;28;20105;-62
2022/04/15 03:55:20;;;;;;;5.32;2.72;;;19.30;60.00;;;;;;5019440;28;20041;-62
2022/04/15 03:57:47;;;;;;;4.20;2.63;;;19.30;60.00;;;;;;5012617;28;20026;-62
2022/04/15 04:00:15;;;;;;;5.45;2.90;;;19.30;60.10;;;;;;5013057;28;20253;-62
2022/04/15 04:02:43;;;;;;;5.45;2.97;;;19.30;60.10;;;;;;5016038;28;20041;-62
2022/04/15 04:05:09;;;;;;;5.65;2.80;;;19.20;60.00;;;;;;5014682;28;20033;-62
2022/04/15 04:07:35;;;;;;;4.30;2.50;;;19.30;61.10;;;;;;5012979;28;20026;-62
2022/04/15 04:10:00;;;;;;;5.22;2.97;;;19.20;60.00;;;;;;5009947;28;20030;-62
2022/04/15 04:12:29;;;;;;;5.35;3.17;;;19.20;60.00;;;;;;5016577;28;20029;-62
2022/04/15 04:14:55;;;;;;;5.85;3.03;;;19.20;60.00;;;;;;5013602;28;20468;-62
2022/04/15 04:17:21;;;;;;;4.80;2.67;;;19.20;60.10;;;;;;5012576;28;20192;-62
2022/04/15 04:19:47;;;;;;;4.70;2.95;;;19.20;60.00;;;;;;5016510;28;20037;-62
2022/04/15 04:22:13;;;;;;;4.55;2.75;;;19.20;60.00;;;;;;5009946;28;20042;-62
2022/04/15 04:24:38;;;;;;;5.63;2.88;;;19.20;60.10;;;;;;5010723;28;20117;-62
2022/04/15 04:27:04;;;;;;;5.55;2.78;;;19.20;60.00;;;;;;5019331;28;20033;-62
2022/04/15 04:29:29;;;;;;;5.53;2.92;;;19.20;60.10;;;;;;5018007;28;20064;-62
2022/04/15 04:31:55;;;;;;;5.90;2.78;;;19.20;60.10;;;;;;5016528;28;20454;-62
2022/04/15 04:34:21;;;;;;;4.90;2.70;;;19.10;60.00;;;;;;5015200;28;20449;-62
2022/04/15 04:36:46;;;;;;;4.85;2.75;;;19.20;60.10;;;;;;5018263;28;20410;-61
2022/04/15 04:39:12;;;;;;;4.80;2.72;;;19.20;60.00;;;;;;5017911;28;20029;-62
2022/04/15 04:41:38;;;;;;;4.20;2.80;;;19.20;60.00;;;;;;5021719;28;20037;-61
2022/04/15 04:44:04;;;;;;;5.05;2.70;;;19.10;60.00;;;;;;5021526;28;20021;-62
2022/04/15 04:46:30;;;;;;;7.30;2.80;;;19.20;60.10;;;;;;5017495;28;20050;-62
2022/04/15 04:48:56;;;;;;;4.47;2.65;;;19.10;60.00;;;;;;5013173;28;20026;-62
2022/04/15 04:51:21;;;;;;;4.82;2.42;;;19.10;60.00;;;;;;5020383;28;20106;-62
2022/04/15 04:53:47;;;;;;;3.42;2.33;;;19.10;60.00;;;;;;5024507;28;20022;-62
2022/04/15 04:56:15;;;;;;;5.32;2.53;;;19.10;60.00;;;;;;5023100;28;20556;-62
2022/04/15 04:58:41;;;;;;;3.70;2.50;;;19.10;60.00;;;;;;5015868;28;20430;-62
2022/04/15 05:01:06;;;;;;;4.28;2.67;;;19.10;59.90;;;;;;5012413;28;20461;-62
2022/04/15 05:03:32;;;;;;;3.80;2.53;;;19.10;60.00;;;;;;5018707;28;20026;-61
2022/04/15 05:05:58;;;;;;;3.90;2.42;;;19.10;59.90;;;;;;5017995;28;20076;-62
2022/04/15 05:08:23;;;;;;;3.72;2.47;;;19.10;59.90;;;;;;5016158;28;20030;-62
2022/04/15 05:10:49;;;;;;;3.97;2.47;;;19.10;59.90;;;;;;5016756;28;20026;-61
2022/04/15 05:13:14;;;;;;;3.60;2.33;;;19.00;59.90;;;;;;5020260;28;20026;-62
2022/04/15 05:15:40;;;;;;;2.72;2.10;;;19.00;59.90;;;;;;5020854;28;20129;-61
2022/04/15 05:18:06;;;;;;;5.10;2.60;;;19.00;59.80;;;;;;5016889;28;20052;-62
2022/04/15 05:20:32;;;;;;;4.53;2.40;;;19.10;59.90;;;;;;5023145;28;20036;-62
2022/04/15 05:22:58;;;;;;;4.88;2.30;;;19.00;59.90;;;;;;5017143;28;20026;-62
2022/04/15 05:25:24;;;;;;;4.07;2.22;;;19.00;59.80;;;;;;5017396;28;20045;-62
2022/04/15 05:27:49;;;;;;;3.45;2.47;;;19.00;59.80;;;;;;5017935;28;20030;-62
2022/04/15 05:30:15;;;;;;;4.45;2.30;;;19.00;59.80;;;;;;5013356;28;20379;-62
2022/04/15 05:32:41;;;;;;;3.70;2.20;;;19.00;59.80;;;;;;5018973;28;20041;-62
2022/04/15 05:35:07;;;;;;;4.35;2.22;;;19.00;59.80;;;;;;5013086;28;20057;-62
2022/04/15 05:37:33;;;;;;;4.60;2.22;;;19.00;59.80;;;;;;5015204;28;20025;-61
2022/04/15 05:39:58;;;;;;;3.95;2.20;;;19.00;59.80;;;;;;5020414;28;20536;-62
2022/04/15 05:42:28;;;;;;;4.22;2.03;;;18.90;59.70;;;;;;5021593;28;20550;-62
2022/04/15 05:44:54;;;;;;;2.90;2.10;;;19.00;59.70;;;;;;5013600;28;20038;-62
2022/04/15 05:47:19;;;;;;;2.55;1.95;;;18.90;59.60;;;;;;5018480;28;20061;-62
2022/04/15 05:49:45;;;;;;;2.78;1.73;;;18.90;59.70;;;;;;5016734;28;20030;-62
2022/04/15 05:52:11;;;;;;;4.18;2.17;;;18.90;59.70;;;;;;5019128;28;20513;-62
2022/04/15 05:54:37;;;;;;;3.17;2.08;;;18.90;59.70;;;;;;5018119;28;20353;-62
2022/04/15 05:57:03;;;;;;;2.80;2.10;;;18.90;59.60;;;;;;5022067;28;20017;-62
2022/04/15 05:59:28;;;;;;;3.92;2.03;;;18.90;59.60;;;;;;5018382;28;20037;-62
2022/04/15 06:01:54;;;;;;;3.17;2.00;;;18.90;59.70;;;;;;5015796;28;20272;-62
2022/04/15 06:04:19;;;;;;;2.72;1.90;;;18.90;59.50;;;;;;5022211;28;20044;-62
2022/04/15 06:06:47;;;;;;;2.38;1.70;;;18.90;59.60;;;;;;5015361;28;20106;-62
2022/04/15 06:09:13;;;;;;;3.70;2.10;;;18.80;59.50;;;;;;5018653;28;20103;-62
2022/04/15 06:11:41;;;;;;;3.10;1.95;;;18.90;59.60;;;;;;5019824;28;20021;-61
2022/04/15 06:14:09;;;;;;;2.55;1.80;;;18.90;60.60;;;;;;5021098;28;20048;-62
2022/04/15 06:16:37;;;;;;;2.85;1.90;;;18.90;59.50;;;;;;5015741;28;20405;-62
2022/04/15 06:19:06;;;;;;;3.67;2.10;;;18.90;59.60;;;;;;5017442;28;20065;-62
2022/04/15 06:21:32;;;;;;;3.00;1.70;;;18.90;59.60;;;;;;5017950;28;20026;-62
2022/04/15 06:23:58;;;;;;;3.22;1.83;;;18.80;59.50;;;;;;5014950;28;20108;-62
2022/04/15 06:26:23;;;;;;;3.55;1.80;;;18.80;59.60;;;;;;5017119;28;20128;-62
2022/04/15 06:28:49;;;;;;;3.60;1.73;;;18.80;59.70;;;;;;5013887;28;20033;-61
2022/04/15 06:31:15;;;;;;;2.53;1.80;;;18.80;60.50;;;;;;5019485;28;20037;-62
2022/04/15 06:33:41;;;;;;;3.13;1.80;;;18.80;59.40;;;;;;5015783;28;20037;-62
2022/04/15 06:36:07;;;;;;;3.75;1.63;;;18.80;59.70;;;;;;5015500;28;20080;-62
2022/04/15 06:38:32;;;;;;;2.47;1.67;;;18.80;59.60;;;;;;5019657;28;20049;-62
2022/04/15 06:40:58;;;;;;;2.13;1.70;;;18.80;59.60;;;;;;5015071;28;20029;-62
2022/04/15 06:43:23;;;;;;;3.60;1.83;;;18.80;59.60;;;;;;5011980;28;20037;-62
2022/04/15 06:45:49;;;;;;;3.60;1.85;;;18.80;59.60;;;;;;5016426;28;20069;-62
2022/04/15 06:48:15;;;;;;;3.00;1.75;;;18.80;59.60;;;;;;5019807;28;20044;-63
2022/04/15 06:50:40;;;;;;;3.65;1.75;;;18.80;59.50;;;;;;5026272;28;20041;-63
2022/04/15 06:53:07;;;;;;;2.97;1.80;;;18.80;59.50;;;;;;5016777;28;20033;-63
2022/04/15 06:55:32;;;;;;;3.75;1.73;;;18.70;59.70;;;;;;5020645;28;20076;-63
2022/04/15 06:57:58;;;;;;;3.28;1.77;;;18.80;59.50;;;;;;5012156;28;20033;-63
2022/04/15 07:00:24;;;;;;;4.03;1.63;;;18.80;59.50;;;;;;5022789;28;20682;-63
2022/04/15 07:02:50;;;;;;;3.50;1.75;;;18.80;59.50;;;;;;5025970;28;20025;-63
2022/04/15 07:05:15;;;;;;;3.65;1.65;;;18.80;59.50;;;;;;5022607;28;20064;-63
2022/04/15 07:07:41;;;;;;;3.92;1.60;;;18.80;59.60;;;;;;5010379;28;20041;-65
2022/04/15 07:10:08;;;;;;;5.65;1.80;;;18.80;59.70;;;;;;5023439;28;20024;-63
2022/04/15 07:12:34;;;;;;;2.88;1.63;;;18.80;59.80;;;;;;5026082;28;20034;-63
2022/04/15 07:15:00;;;;;;;3.85;1.70;;;18.80;59.80;;;;;;5016852;28;20047;-63
2022/04/15 07:17:25;;;;;;;2.70;1.77;;;18.80;59.90;;;;;;5019316;28;20036;-62
2022/04/15 07:19:51;;;;;;;7.50;1.75;;;18.80;59.90;;;;;;5016391;28;20044;-63
2022/04/15 07:22:18;;;;;;;2.85;1.60;;;18.80;60.30;;;;;;5020313;28;20029;-64
2022/04/15 07:24:45;;;;;;;5.65;1.67;;;18.80;60.10;;;;;;5018001;28;20452;-63
2022/04/15 07:27:11;;;;;;;2.22;1.60;;;18.80;60.20;;;;;;5018742;28;20053;-63
2022/04/15 07:29:37;;;;;;;3.47;1.65;;;18.80;60.30;;;;;;5019971;28;20030;-64
2022/04/15 07:32:04;;;;;;;4.95;1.85;;;18.80;60.20;;;;;;5020473;28;20033;-63
2022/04/15 07:34:30;;;;;;;7.15;1.80;;;18.80;60.30;;;;;;5022922;28;20026;-63
2022/04/15 07:36:57;;;;;;;5.40;1.70;;;18.80;60.20;;;;;;5020623;28;20036;-63
2022/04/15 07:39:23;;;;;;;4.28;1.75;;;18.80;60.20;;;;;;5020783;28;20036;-63
2022/04/15 07:41:49;;;;;;;6.63;1.75;;;18.80;60.20;;;;;;5017367;28;20125;-63
2022/04/15 07:44:14;;;;;;;6.00;1.60;;;18.80;60.20;;;;;;5017900;28;20426;-63
2022/04/15 07:46:41;;;;;;;5.10;1.40;;;18.80;60.20;;;;;;5014456;28;20132;-64
2022/04/15 07:49:07;;;;;;;5.25;1.67;;;18.80;60.20;;;;;;5014776;28;20691;-63
2022/04/15 07:51:33;;;;;;;4.57;1.70;;;18.90;60.30;;;;;;5015067;28;20041;-64
2022/04/15 07:53:58;;;;;;;10.52;1.80;;;18.90;60.30;;;;;;5015459;28;20044;-63
2022/04/15 07:56:24;;;;;;;8.32;2.13;;;18.90;60.60;;;;;;5016636;28;20408;-64
2022/04/15 07:58:53;;;;;;;9.13;1.90;;;18.90;60.80;;;;;;5016362;28;20034;-63
2022/04/15 08:01:19;;;;;;;15.20;2.10;;;18.90;60.80;;;;;;5015589;28;20040;-63
2022/04/15 08:03:45;;;;;;;8.48;2.00;;;19.00;60.70;;;;;;5023835;28;20607;-63
2022/04/15 08:06:11;;;;;;;9.57;2.00;;;19.00;60.70;;;;;;5024519;28;20060;-63
2022/04/15 08:08:36;;;;;;;8.38;1.95;;;18.90;60.60;;;;;;5025936;28;20053;-63
2022/04/15 08:11:02;;;;;;;9.90;2.00;;;19.00;60.70;;;;;;5021801;28;20045;-63
2022/04/15 08:13:28;;;;;;;7.80;1.75;;;18.90;60.80;;;;;;5021291;28;20042;-63
2022/04/15 08:15:54;;;;;;;10.57;2.20;;;18.90;60.80;;;;;;5024535;28;20034;-63
2022/04/15 08:18:23;;;;;;;9.32;2.13;;;19.00;60.80;;;;;;5022191;28;20084;-63
2022/04/15 08:20:50;;;;;;;8.70;2.10;;;18.90;60.70;;;;;;5021282;28;20095;-62
2022/04/15 08:23:17;;;;;;;13.63;1.98;;;19.00;60.70;;;;;;5023080;28;20095;-63
2022/04/15 08:25:43;;;;;;;5.78;1.70;;;18.90;60.60;;;;;;5019457;28;20088;-63
2022/04/15 08:28:09;;;;;;;8.70;1.90;;;19.00;60.60;;;;;;5017354;28;20616;-63
2022/04/15 08:30:37;;;;;;;10.50;1.95;;;19.00;60.70;;;;;;5022410;28;20092;-63
2022/04/15 08:33:05;;;;;;;6.30;1.85;;;19.00;60.60;;;;;;5022677;28;20670;-63
2022/04/15 08:35:31;;;;;;;10.70;2.03;;;19.00;60.70;;;;;;5020384;28;20408;-64
2022/04/15 08:37:56;;;;;;;10.32;2.00;;;19.00;60.90;;;;;;5019772;28;20022;-63
2022/04/15 08:40:22;;;;;;;4.70;1.70;;;19.00;60.70;;;;;;5015716;28;20033;-63
2022/04/15 08:42:48;;;;;;;13.32;2.20;;;19.00;60.70;;;;;;5026930;28;20544;-62
2022/04/15 08:45:13;;;;;;;13.60;2.30;;;19.00;60.70;;;;;;5023102;28;20088;-63
2022/04/15 08:47:42;;;;;;;8.68;2.10;;;19.00;60.50;;;;;;5024134;28;20087;-63
2022/04/15 08:50:12;;;;;;;9.38;2.53;;;19.00;60.50;;;;;;5018471;28;20141;-63
2022/04/15 08:52:38;;;;;;;9.63;2.30;;;19.00;60.60;;;;;;5026005;28;20056;-63
2022/04/15 08:55:04;;;;;;;9.88;2.20;;;19.00;60.50;;;;;;5020490;28;20112;-63
2022/04/15 08:57:30;;;;;;;12.00;2.25;;;19.10;60.50;;;;;;5025900;28;20496;-62
2022/04/15 08:59:56;;;;;;;7.55;2.42;;;19.10;60.50;;;;;;5023705;28;20030;-63
2022/04/15 09:02:36;;;;;;;11.32;2.50;;;19.10;60.50;;;;;;5020878;28;20033;-63
2022/04/15 09:05:03;;;;;;;9.23;2.38;;;19.20;60.50;;;;;;5019226;28;20032;-63
2022/04/15 09:07:31;;;;;;;9.93;2.60;;;19.10;60.40;;;;;;5017821;28;20034;-63
2022/04/15 09:09:57;;;;;;;10.95;2.75;;;19.20;60.50;;;;;;5021309;28;20013;-63
2022/04/15 09:12:26;;;;;;;11.68;2.78;;;19.20;60.60;;;;;;5023788;28;20363;-63
2022/04/15 09:14:54;;;;;;;12.90;2.90;;;19.30;60.80;;;;;;5018834;28;20414;-62
2022/04/15 09:17:26;;;;;;;10.50;2.50;;;19.30;60.60;;;;;;5018754;28;20060;-63
2022/04/15 09:19:54;;;;;;;14.93;3.05;;;19.40;61.10;;;;;;5017731;28;20049;-63
2022/04/15 09:22:20;;;;;;;11.40;2.92;;;19.30;61.10;;;;;;5017450;28;20067;-63
2022/04/15 09:24:47;;;;;;;17.02;3.30;;;19.40;61.20;;;;;;5015754;28;20719;-63
2022/04/15 09:27:12;;;;;;;13.07;2.78;;;19.30;61.40;;;;;;5022721;28;20494;-63
2022/04/15 09:29:40;;;;;;;11.85;3.00;;;19.30;61.30;;;;;;5022589;28;20045;-63
2022/04/15 09:32:16;;;;;;;12.77;2.88;;;19.40;61.30;;;;;;5022934;28;20025;-62
2022/04/15 09:34:57;;;;;;;10.55;3.10;;;19.40;61.10;;;;;;5020246;28;20025;-63
2022/04/15 09:37:26;;;;;;;11.43;3.40;;;19.40;61.10;;;;;;5023941;28;20029;-63
2022/04/15 09:40:12;;;;;;;14.43;3.58;;;19.40;61.10;;;;;;5007773;28;20041;-63
2022/04/15 09:42:49;;;;;;;16.35;3.50;;;19.40;61.10;;;;;;5033202;28;20025;-63
2022/04/15 09:45:16;;;;;;;13.10;3.50;;;19.40;61.10;;;;;;5027962;28;20056;-63
2022/04/15 09:47:42;;;;;;;12.63;3.58;;;19.50;61.10;;;;;;5022607;28;20098;-63
2022/04/15 09:50:27;;;;;;;12.38;3.45;;;19.50;61.10;;;;;;5028977;28;20939;-63
2022/04/15 09:53:12;;;;;;;8.25;3.17;;;19.50;61.10;;;;;;5015860;28;20076;-62
2022/04/15 09:55:40;;;;;;;;;;;19.50;60.90;;;;;;5019196;28;20035;-62
2022/04/15 09:58:16;;;;;;;9.85;3.80;;;19.50;60.90;;;;;;5016988;28;19909;-62
2022/04/15 10:00:43;;;;;;;9.52;3.25;;;19.50;60.80;;;;;;5027392;28;20033;-63
2022/04/15 10:03:19;;;;;;;8.68;3.30;;;19.50;60.80;;;;;;5023832;28;20121;-62
2022/04/15 10:05:45;;;;;;;8.93;3.40;;;19.50;60.80;;;;;;5014215;28;20021;-63
2022/04/15 10:08:11;;;;;;;9.23;3.40;;;19.50;60.80;;;;;;5022537;28;20092;-62
2022/04/15 10:10:37;;;;;;;12.98;3.40;;;19.50;60.70;;;;;;5020657;28;20916;-63
2022/04/15 10:13:04;;;;;;;8.52;3.20;;;19.50;60.80;;;;;;5026703;28;20451;-63
2022/04/15 10:15:33;;;;;;;9.82;3.13;;;19.60;61.40;;;;;;5021807;28;20042;-62
2022/04/15 10:18:00;;;;;;;10.52;3.10;;;19.60;61.00;;;;;;5016441;28;20017;-63
2022/04/15 10:20:26;;;;;;;16.67;3.25;;;19.60;61.00;;;;;;5023633;28;20033;-63
2022/04/15 10:22:52;;;;;;;13.27;3.28;;;19.60;61.20;;;;;;5018891;28;20083;-63
2022/04/15 10:25:18;;;;;;;12.57;2.90;;;19.60;61.20;;;;;;5021071;28;20033;-63
2022/04/15 10:27:43;;;;;;;13.27;3.45;;;19.60;61.20;;;;;;5015124;28;20053;-63
2022/04/15 10:30:20;;;;;;;12.68;3.25;;;19.60;61.20;;;;;;5012942;28;20034;-62
2022/04/15 10:32:49;;;;;;;10.85;3.03;;;19.70;61.20;;;;;;5026340;28;20083;-62
2022/04/15 10:35:22;;;;;;;16.52;3.80;;;19.70;60.90;;;;;;5025863;28;20034;-63
2022/04/15 10:37:54;;;;;;;6.72;3.20;;;19.60;60.60;;;;;;5024647;28;20039;-63
2022/04/15 10:40:33;;;;;;;11.45;3.08;;;19.60;59.80;;;;;;5022752;28;20025;-62
2022/04/15 10:43:06;;;;;;;4.88;2.88;;;19.50;59.90;;;;;;5021599;28;20022;-63
2022/04/15 10:45:36;;;;;;;4.40;2.65;;;19.40;59.80;;;;;;5016673;28;20050;-62
2022/04/15 10:48:03;;;;;;;6.20;3.17;;;19.40;59.80;;;;;;5018833;28;20084;-63
2022/04/15 10:50:30;;;;;;;6.60;2.92;;;19.40;59.70;;;;;;5027128;28;20020;-62
2022/04/15 10:53:15;;;;;;;4.95;2.63;;;19.40;59.70;;;;;;5015852;28;20037;-62
2022/04/15 10:55:52;;;;;;;5.00;2.60;;;19.40;59.60;;;;;;5025483;28;20132;-62
2022/04/15 10:58:18;;;;;;;3.92;2.47;;;19.40;59.40;;;;;;5024401;28;20044;-62
2022/04/15 11:03:29;;;;;;;4.33;2.80;;;19.40;59.40;;;;;;5015476;28;20092;-62
2022/04/15 11:05:58;;;;;;;4.47;2.58;;;19.30;59.30;;;;;;5018587;28;20300;-62
2022/04/15 11:08:26;;;;;;;6.35;2.80;;;19.30;59.50;;;;;;5025559;28;20029;-62
2022/04/15 11:10:55;;;;;;;3.88;2.70;;;19.30;59.30;;;;;;5020587;28;20022;-62
2022/04/15 11:13:32;;;;;;;4.32;2.60;;;19.30;59.30;;;;;;5022396;28;20042;-62
2022/04/15 11:16:15;;;;;;;4.38;2.95;;;19.30;59.10;;;;;;5025189;28;20108;-62
2022/04/15 11:18:50;;;;;;;3.80;2.72;;;19.30;59.20;;;;;;5026528;28;20115;-63
2022/04/15 11:21:26;;;;;;;4.03;2.70;;;19.20;59.00;;;;;;5012498;28;20056;-63
2022/04/15 11:23:56;;;;;;;4.68;2.88;;;19.10;59.00;;;;;;5018548;28;20490;-63
2022/04/15 11:26:22;;;;;;;3.90;2.70;;;19.20;59.20;;;;;;5026163;28;20053;-62
2022/04/15 11:28:50;;;;;;;3.78;2.40;;;19.20;59.20;;;;;;5016151;28;20350;-62
2022/04/15 11:31:24;;;;;;;3.40;2.38;;;19.20;59.10;;;;;;5017354;28;20041;-62
2022/04/15 11:33:51;;;;;;;3.15;2.25;;;19.30;58.90;;;;;;5012653;28;20026;-63
2022/04/15 11:36:20;;;;;;;4.07;2.20;;;19.20;59.20;;;;;;5019740;28;20502;-62
2022/04/15 11:38:46;;;;;;;4.78;2.50;;;19.30;59.30;;;;;;5016611;28;20084;-62
2022/04/15 11:41:16;;;;;;;3.55;2.30;;;19.30;59.10;;;;;;5019156;28;20026;-63
2022/04/15 11:43:46;;;;;;;3.63;2.30;;;19.30;59.20;;;;;;5018801;28;20033;-62
2022/04/15 11:46:12;;;;;;;6.05;2.35;;;19.30;59.00;;;;;;5027582;28;20046;-62
2022/04/15 11:48:38;;;;;;;6.50;2.40;;;19.30;58.70;;;;;;5022169;28;20544;-62
2022/04/15 11:51:05;;;;;;;7.22;2.53;;;19.30;58.80;;;;;;5017873;28;20021;-62
2022/04/15 11:53:33;;;;;;;7.63;2.38;;;19.30;59.00;;;;;;5016452;28;20037;-62
2022/04/15 11:55:59;;;;;;;7.90;2.17;;;19.30;59.00;;;;;;5019804;28;20061;-63
2022/04/15 11:58:30;;;;;;;10.05;2.40;;;19.40;58.80;;;;;;5018017;28;20462;-63
2022/04/15 12:00:57;;;;;;;5.90;2.17;;;19.50;58.80;;;;;;5021098;28;20414;-63
2022/04/15 12:03:23;;;;;;;5.60;1.83;;;19.50;58.60;;;;;;5019995;28;20350;-63
2022/04/15 12:05:50;;;;;;;4.55;1.80;;;19.60;58.40;;;;;;5018308;28;20036;-63
2022/04/15 12:08:16;;;;;;;4.18;1.90;;;19.60;58.30;;;;;;5015976;28;20073;-62
2022/04/15 12:10:42;;;;;;;3.88;1.70;;;19.60;58.10;;;;;;5013122;28;20029;-63
2022/04/15 12:13:08;;;;;;;4.30;1.70;;;19.60;58.30;;;;;;5022110;28;20037;-63
2022/04/15 12:15:34;;;;;;;10.85;2.10;;;19.60;58.20;;;;;;5015909;28;20103;-62
2022/04/15 12:18:05;;;;;;;9.18;2.05;;;19.70;58.00;;;;;;5015876;28;20022;-63
2022/04/15 12:20:34;;;;;;;6.88;1.75;;;19.70;58.00;;;;;;5016305;28;20493;-63
2022/04/15 12:23:00;;;;;;;7.88;1.70;;;19.70;58.00;;;;;;5027509;28;20025;-62
2022/04/15 12:25:26;;;;;;;3.97;1.52;;;19.70;58.00;;;;;;5014203;28;20025;-59
2022/04/15 12:27:53;;;;;;;20.70;3.33;;;19.80;58.20;;;;;;5021865;28;20073;-59
2022/04/15 12:30:39;;;;;;;14.20;2.40;;;19.90;58.30;;;;;;5022138;28;20498;-59
2022/04/15 12:33:08;;;;;;;12.90;2.40;;;20.00;58.10;;;;;;5011474;28;20130;-59
2022/04/15 12:35:35;;;;;;;14.30;2.53;;;20.10;58.00;;;;;;5019636;28;20065;-59
2022/04/15 12:38:00;;;;;;;11.55;2.47;;;20.00;58.00;;;;;;5023079;28;20478;-59
2022/04/15 12:40:30;;;;;;;12.40;2.10;;;20.00;58.00;;;;;;5013870;28;20033;-59
2022/04/15 12:42:56;;;;;;;12.02;2.00;;;20.00;58.00;;;;;;5015512;28;20055;-59
2022/04/15 12:45:23;;;;;;;7.00;2.35;;;20.10;58.00;;;;;;5021399;28;20049;-59
2022/04/15 12:47:58;;;;;;;8.65;1.90;;;19.90;57.80;;;;;;5014661;28;20041;-59